createdAt,value
2023-04-17T00:00:08.411Z,99.90
2023-04-17T00:02:35.286Z,99.90
2023-04-17T00:05:02.061Z,99.90
2023-04-17T00:07:28.719Z,99.90
2023-04-17T00:09:55.316Z,99.90
2023-04-17T00:12:21.916Z,99.90
2023-04-17T00:14:48.530Z,99.90
2023-04-17T00:17:15.125Z,99.90
2023-04-17T00:19:41.797Z,99.90
2023-04-17T00:22:08.391Z,99.90
2023-04-17T00:24:34.992Z,99.90
2023-04-17T00:27:01.576Z,99.90
2023-04-17T00:29:28.209Z,99.90
2023-04-17T00:31:54.802Z,99.90
2023-04-17T00:34:21.429Z,99.90
2023-04-17T00:36:48.015Z,99.90
2023-04-17T00:39:14.768Z,99.90
2023-04-17T00:41:41.481Z,99.90
2023-04-17T00:44:08.084Z,99.90
2023-04-17T00:46:34.723Z,99.90
2023-04-17T00:49:01.314Z,99.90
2023-04-17T00:51:27.910Z,99.90
2023-04-17T00:53:54.578Z,99.90
2023-04-17T00:56:21.256Z,99.90
2023-04-17T00:58:47.837Z,99.90
2023-04-17T01:01:14.478Z,99.90
2023-04-17T01:03:41.262Z,99.90
2023-04-17T01:06:08.077Z,99.90
2023-04-17T01:08:34.820Z,99.90
2023-04-17T01:11:01.414Z,99.90
2023-04-17T01:13:28.006Z,99.90
2023-04-17T01:15:54.752Z,99.90
2023-04-17T01:18:21.777Z,99.90
2023-04-17T01:20:48.404Z,99.90
2023-04-17T01:23:15.009Z,99.90
2023-04-17T01:25:41.919Z,99.90
2023-04-17T01:28:08.515Z,99.90
2023-04-17T01:30:35.188Z,99.90
2023-04-17T01:33:02.385Z,99.90
2023-04-17T01:35:29.082Z,99.90
2023-04-17T01:37:55.656Z,99.90
2023-04-17T01:40:22.254Z,99.90
2023-04-17T01:42:48.838Z,99.90
2023-04-17T01:45:15.477Z,99.90
2023-04-17T01:47:42.113Z,99.90
2023-04-17T01:50:08.791Z,99.90
2023-04-17T01:52:35.781Z,99.90
2023-04-17T01:55:02.353Z,99.90
2023-04-17T01:57:28.933Z,99.90
2023-04-17T01:59:55.631Z,99.90
2023-04-17T02:02:22.373Z,99.90
2023-04-17T02:04:49.097Z,99.90
2023-04-17T02:07:15.650Z,99.90
2023-04-17T02:09:42.256Z,99.90
2023-04-17T02:12:08.829Z,99.90
2023-04-17T02:14:35.449Z,99.90
2023-04-17T02:17:02.136Z,99.90
2023-04-17T02:19:28.730Z,99.90
2023-04-17T02:21:55.306Z,99.90
2023-04-17T02:24:21.870Z,99.90
2023-04-17T02:26:48.456Z,99.90
2023-04-17T02:29:15.145Z,99.90
2023-04-17T02:31:41.865Z,99.90
2023-04-17T02:34:08.426Z,99.90
2023-04-17T02:36:35.048Z,99.90
2023-04-17T02:39:01.612Z,99.90
2023-04-17T02:41:28.234Z,99.90
2023-04-17T02:43:54.836Z,99.90
2023-04-17T02:46:21.462Z,99.90
2023-04-17T02:48:48.055Z,99.90
2023-04-17T02:51:14.643Z,99.90
2023-04-17T02:53:41.217Z,99.90
2023-04-17T02:56:07.925Z,99.90
2023-04-17T02:58:34.668Z,99.90
2023-04-17T03:01:01.690Z,99.90
2023-04-17T03:03:28.598Z,99.90
2023-04-17T03:05:55.327Z,99.90
2023-04-17T03:08:21.949Z,99.90
2023-04-17T03:10:48.477Z,99.90
2023-04-17T03:13:17.541Z,99.90
2023-04-17T03:15:44.125Z,99.90
2023-04-17T03:18:10.722Z,99.90
2023-04-17T03:20:37.318Z,99.90
2023-04-17T03:23:04.002Z,99.90
2023-04-17T03:25:31.965Z,99.90
2023-04-17T03:27:58.684Z,99.90
2023-04-17T03:30:26.188Z,99.90
2023-04-17T03:32:52.831Z,99.90
2023-04-17T03:35:19.448Z,99.90
2023-04-17T03:37:46.027Z,99.90
2023-04-17T03:40:12.731Z,99.90
2023-04-17T03:42:39.669Z,99.90
2023-04-17T03:45:06.267Z,99.90
2023-04-17T03:47:32.873Z,99.90
2023-04-17T03:49:59.541Z,99.90
2023-04-17T03:52:26.170Z,99.90
2023-04-17T03:54:52.729Z,99.90
2023-04-17T03:57:19.310Z,99.90
2023-04-17T03:59:45.906Z,99.90
2023-04-17T04:02:12.647Z,99.90
2023-04-17T04:04:39.384Z,99.90
2023-04-17T04:07:06.140Z,99.90
2023-04-17T04:09:32.848Z,99.90
2023-04-17T04:11:59.641Z,99.90
2023-04-17T04:14:26.227Z,99.90
2023-04-17T04:16:52.833Z,99.90
2023-04-17T04:19:19.414Z,99.90
2023-04-17T04:21:45.998Z,99.90
2023-04-17T04:24:12.699Z,99.90
2023-04-17T04:26:39.252Z,99.90
2023-04-17T04:29:05.841Z,99.90
2023-04-17T04:31:33.041Z,99.90
2023-04-17T04:33:59.770Z,99.90
2023-04-17T04:36:26.359Z,99.90
2023-04-17T04:38:53.076Z,99.90
2023-04-17T04:41:19.633Z,99.90
2023-04-17T04:43:46.332Z,99.90
2023-04-17T04:46:12.977Z,99.90
2023-04-17T04:48:42.544Z,99.90
2023-04-17T04:51:09.514Z,99.90
2023-04-17T04:53:36.119Z,99.90
2023-04-17T04:56:02.708Z,99.90
2023-04-17T04:58:29.293Z,99.90
2023-04-17T05:00:55.975Z,99.90
2023-04-17T05:03:22.973Z,99.90
2023-04-17T05:05:49.725Z,99.90
2023-04-17T05:08:16.293Z,99.90
2023-04-17T05:10:42.997Z,99.90
2023-04-17T05:13:09.621Z,99.90
2023-04-17T05:15:36.318Z,99.90
2023-04-17T05:18:02.921Z,99.90
2023-04-17T05:20:29.627Z,99.90
2023-04-17T05:22:56.228Z,99.90
2023-04-17T05:25:22.863Z,99.90
2023-04-17T05:27:49.462Z,99.90
2023-04-17T05:30:16.031Z,99.90
2023-04-17T05:32:42.662Z,99.90
2023-04-17T05:35:09.278Z,99.90
2023-04-17T05:37:35.862Z,99.90
2023-04-17T05:40:02.455Z,99.90
2023-04-17T05:42:29.112Z,99.90
2023-04-17T05:44:55.735Z,99.90
2023-04-17T05:47:22.507Z,99.90
2023-04-17T05:49:49.113Z,99.90
2023-04-17T05:52:15.778Z,99.90
2023-04-17T05:54:42.472Z,99.90
2023-04-17T05:57:09.268Z,99.90
2023-04-17T05:59:35.840Z,99.90
2023-04-17T06:02:02.554Z,99.90
2023-04-17T06:04:29.474Z,99.90
2023-04-17T06:06:56.183Z,99.90
2023-04-17T06:09:23.953Z,99.90
2023-04-17T06:11:52.318Z,99.90
2023-04-17T06:14:20.806Z,99.90
2023-04-17T06:16:47.651Z,99.90
2023-04-17T06:19:14.465Z,99.90
2023-04-17T06:21:41.292Z,99.90
2023-04-17T06:24:07.876Z,99.90
2023-04-17T06:26:34.485Z,99.90
2023-04-17T06:29:02.062Z,99.90
2023-04-17T06:31:28.830Z,99.90
2023-04-17T06:33:55.422Z,99.90
2023-04-17T06:36:22.083Z,99.90
2023-04-17T06:38:48.726Z,99.90
2023-04-17T06:41:15.318Z,99.90
2023-04-17T06:43:41.915Z,99.90
2023-04-17T06:46:08.549Z,99.90
2023-04-17T06:48:35.195Z,99.90
2023-04-17T06:51:01.816Z,99.90
2023-04-17T06:53:28.438Z,99.90
2023-04-17T06:55:55.125Z,99.90
2023-04-17T06:58:21.682Z,99.90
2023-04-17T07:00:48.335Z,99.90
2023-04-17T07:03:15.039Z,99.90
2023-04-17T07:05:41.716Z,99.90
2023-04-17T07:08:08.314Z,99.90
2023-04-17T07:10:34.893Z,99.90
2023-04-17T07:13:01.549Z,99.90
2023-04-17T07:15:28.309Z,99.90
2023-04-17T07:17:54.979Z,99.90
2023-04-17T07:20:21.592Z,99.90
2023-04-17T07:22:48.203Z,99.90
2023-04-17T07:25:15.702Z,99.90
2023-04-17T07:27:42.271Z,99.90
2023-04-17T07:30:08.887Z,99.90
2023-04-17T07:32:35.528Z,99.90
2023-04-17T07:35:02.142Z,99.90
2023-04-17T07:37:28.701Z,99.90
2023-04-17T07:39:55.319Z,99.90
2023-04-17T07:42:21.910Z,99.90
2023-04-17T07:44:48.470Z,99.90
2023-04-17T07:47:15.687Z,99.90
2023-04-17T07:49:42.312Z,99.90
2023-04-17T07:52:08.918Z,99.90
2023-04-17T07:54:35.480Z,99.90
2023-04-17T07:57:02.079Z,99.90
2023-04-17T07:59:28.713Z,99.90
2023-04-17T08:01:55.391Z,99.90
2023-04-17T08:04:22.209Z,99.90
2023-04-17T08:06:48.860Z,99.90
2023-04-17T08:09:15.457Z,99.90
2023-04-17T08:11:53.765Z,99.90
2023-04-17T08:14:23.929Z,99.90
2023-04-17T08:16:50.608Z,99.90
2023-04-17T08:19:17.245Z,99.90
2023-04-17T08:21:43.835Z,99.90
2023-04-17T08:24:10.396Z,99.90
2023-04-17T08:26:37.030Z,99.90
2023-04-17T08:29:03.632Z,99.90
2023-04-17T08:31:30.236Z,99.90
2023-04-17T08:34:10.377Z,99.90
2023-04-17T08:36:40.732Z,99.90
2023-04-17T08:39:07.323Z,99.90
2023-04-17T08:41:33.876Z,99.90
2023-04-17T08:44:00.528Z,99.90
2023-04-17T08:46:27.234Z,99.90
2023-04-17T08:48:53.872Z,99.90
2023-04-17T08:51:20.468Z,99.90
2023-04-17T08:53:47.060Z,99.90
2023-04-17T08:56:13.640Z,99.90
2023-04-17T08:58:40.196Z,99.90
2023-04-17T09:01:06.835Z,99.90
2023-04-17T09:03:33.548Z,99.90
2023-04-17T09:06:00.291Z,99.90
2023-04-17T09:08:26.918Z,99.90
2023-04-17T09:10:53.582Z,99.90
2023-04-17T09:13:20.242Z,99.90
2023-04-17T09:15:46.901Z,99.80
2023-04-17T09:18:13.570Z,99.90
2023-04-17T09:20:40.150Z,99.90
2023-04-17T09:23:06.727Z,99.90
2023-04-17T09:25:33.308Z,99.20
2023-04-17T09:27:59.918Z,99.40
2023-04-17T09:30:26.537Z,99.70
2023-04-17T09:32:53.165Z,99.90
2023-04-17T09:35:19.804Z,99.80
2023-04-17T09:37:46.486Z,99.50
2023-04-17T09:40:13.191Z,99.80
2023-04-17T09:42:39.779Z,99.80
2023-04-17T09:45:06.390Z,99.30
2023-04-17T09:47:32.976Z,99.80
2023-04-17T09:49:59.608Z,99.30
2023-04-17T09:52:26.213Z,99.00
2023-04-17T09:54:52.834Z,99.40
2023-04-17T09:57:19.422Z,99.00
2023-04-17T09:59:46.063Z,99.20
2023-04-17T10:02:12.795Z,99.50
2023-04-17T10:04:39.532Z,99.30
2023-04-17T10:07:06.189Z,99.70
2023-04-17T10:09:32.758Z,99.90
2023-04-17T10:11:59.468Z,97.50
2023-04-17T10:14:26.172Z,98.60
2023-04-17T10:16:53.092Z,99.00
2023-04-17T10:19:19.761Z,98.20
2023-04-17T10:21:46.353Z,98.50
2023-04-17T10:24:13.117Z,98.90
2023-04-17T10:26:39.854Z,97.80
2023-04-17T10:29:06.738Z,98.00
2023-04-17T10:31:33.432Z,98.60
2023-04-17T10:34:00.087Z,97.60
2023-04-17T10:36:26.700Z,97.40
2023-04-17T10:38:53.483Z,98.60
2023-04-17T10:41:20.124Z,97.90
2023-04-17T10:43:46.722Z,98.10
2023-04-17T10:46:13.437Z,98.00
2023-04-17T10:48:40.167Z,98.40
2023-04-17T10:51:06.803Z,97.50
2023-04-17T10:53:33.413Z,98.30
2023-04-17T10:55:59.996Z,98.50
2023-04-17T10:58:31.671Z,97.70
2023-04-17T11:00:58.637Z,97.40
2023-04-17T11:03:25.336Z,97.10
2023-04-17T11:05:52.022Z,97.10
2023-04-17T11:08:18.611Z,98.30
2023-04-17T11:10:45.219Z,96.80
2023-04-17T11:13:11.792Z,97.80
2023-04-17T11:15:38.474Z,96.10
2023-04-17T11:18:05.148Z,96.50
2023-04-17T11:20:31.769Z,96.40
2023-04-17T11:22:58.393Z,96.70
2023-04-17T11:25:25.177Z,96.60
2023-04-17T11:27:51.766Z,96.30
2023-04-17T11:30:18.343Z,96.40
2023-04-17T11:32:44.981Z,96.10
2023-04-17T11:35:11.644Z,96.40
2023-04-17T11:37:38.378Z,96.70
2023-04-17T11:40:05.064Z,95.50
2023-04-17T11:42:31.632Z,96.50
2023-04-17T11:44:58.298Z,96.10
2023-04-17T11:47:25.108Z,96.20
2023-04-17T11:49:51.982Z,96.10
2023-04-17T11:52:18.591Z,96.00
2023-04-17T11:54:45.169Z,95.40
2023-04-17T11:57:11.801Z,96.20
2023-04-17T11:59:38.366Z,95.30
2023-04-17T12:02:05.023Z,95.40
2023-04-17T12:04:31.881Z,94.10
2023-04-17T12:06:59.770Z,94.10
2023-04-17T12:09:26.461Z,94.70
2023-04-17T12:11:53.104Z,95.70
2023-04-17T12:14:19.709Z,95.80
2023-04-17T12:16:46.334Z,94.50
2023-04-17T12:19:13.157Z,94.90
2023-04-17T12:21:39.873Z,94.40
2023-04-17T12:24:06.515Z,93.80
2023-04-17T12:26:33.092Z,93.80
2023-04-17T12:28:59.716Z,95.30
2023-04-17T12:31:26.702Z,94.50
2023-04-17T12:33:53.375Z,94.80
2023-04-17T12:36:20.146Z,94.10
2023-04-17T12:38:46.771Z,94.60
2023-04-17T12:41:13.709Z,94.20
2023-04-17T12:43:40.309Z,93.70
2023-04-17T12:46:07.030Z,94.40
2023-04-17T12:48:33.645Z,95.00
2023-04-17T12:51:00.428Z,96.40
2023-04-17T12:53:27.046Z,95.50
2023-04-17T12:55:53.646Z,95.70
2023-04-17T12:58:20.205Z,93.30
2023-04-17T13:00:47.208Z,94.10
2023-04-17T13:03:13.958Z,93.80
2023-04-17T13:05:40.621Z,93.60
2023-04-17T13:08:07.209Z,93.30
2023-04-17T13:10:34.220Z,93.70
2023-04-17T13:13:01.173Z,93.70
2023-04-17T13:15:28.053Z,94.10
2023-04-17T13:17:54.737Z,93.50
2023-04-17T13:20:21.688Z,94.10
2023-04-17T13:22:48.522Z,93.70
2023-04-17T13:25:15.094Z,93.30
2023-04-17T13:27:41.714Z,92.70
2023-04-17T13:30:08.345Z,93.00
2023-04-17T13:32:35.336Z,93.60
2023-04-17T13:35:01.974Z,93.30
2023-04-17T13:37:28.574Z,93.30
2023-04-17T13:39:55.141Z,92.40
2023-04-17T13:42:21.745Z,93.30
2023-04-17T13:44:48.344Z,92.60
2023-04-17T13:47:15.806Z,92.30
2023-04-17T13:49:42.390Z,92.70
2023-04-17T13:52:09.002Z,92.40
2023-04-17T13:54:35.586Z,93.10
2023-04-17T13:57:02.186Z,92.10
2023-04-17T13:59:29.060Z,92.50
2023-04-17T14:01:55.784Z,92.70
2023-04-17T14:04:22.664Z,93.40
2023-04-17T14:06:49.320Z,92.10
2023-04-17T14:09:15.918Z,92.60
2023-04-17T14:11:42.487Z,91.10
2023-04-17T14:14:09.086Z,91.60
2023-04-17T14:16:35.641Z,89.70
2023-04-17T14:19:12.655Z,90.70
2023-04-17T14:21:40.948Z,90.00
2023-04-17T14:24:07.513Z,89.50
2023-04-17T14:26:34.209Z,88.30
2023-04-17T14:29:00.798Z,90.10
2023-04-17T14:31:27.410Z,89.70
2023-04-17T14:33:54.024Z,90.80
2023-04-17T14:36:20.986Z,90.20
2023-04-17T14:38:47.687Z,90.40
2023-04-17T14:41:14.290Z,90.30
2023-04-17T14:43:40.896Z,90.70
2023-04-17T14:46:07.520Z,90.10
2023-04-17T14:48:41.106Z,90.60
2023-04-17T14:51:18.715Z,89.50
2023-04-17T14:53:45.316Z,90.70
2023-04-17T14:56:11.979Z,90.10
2023-04-17T14:58:38.578Z,90.40
2023-04-17T15:01:05.245Z,91.40
2023-04-17T15:03:32.040Z,91.50
2023-04-17T15:05:59.048Z,91.00
2023-04-17T15:08:25.672Z,89.50
2023-04-17T15:10:52.283Z,89.70
2023-04-17T15:13:18.881Z,90.40
2023-04-17T15:15:45.447Z,89.20
2023-04-17T15:18:12.024Z,89.90
2023-04-17T15:20:38.600Z,90.20
2023-04-17T15:23:05.175Z,89.50
2023-04-17T15:25:31.798Z,90.40
2023-04-17T15:27:58.361Z,90.30
2023-04-17T15:30:24.962Z,90.20
2023-04-17T15:32:51.549Z,89.70
2023-04-17T15:35:18.157Z,89.90
2023-04-17T15:37:44.831Z,90.40
2023-04-17T15:40:11.434Z,89.40
2023-04-17T15:42:38.052Z,90.40
2023-04-17T15:45:04.621Z,87.20
2023-04-17T15:47:31.304Z,86.90
2023-04-17T15:49:58.043Z,89.00
2023-04-17T15:52:24.694Z,90.30
2023-04-17T15:54:51.333Z,87.90
2023-04-17T15:57:18.193Z,87.30
2023-04-17T15:59:44.783Z,86.60
2023-04-17T16:02:11.513Z,88.80
2023-04-17T16:04:38.500Z,89.10
2023-04-17T16:07:05.374Z,88.60
2023-04-17T16:09:31.953Z,90.30
2023-04-17T16:11:58.538Z,88.60
2023-04-17T16:14:25.164Z,88.70
2023-04-17T16:16:51.723Z,88.90
2023-04-17T16:19:18.303Z,87.20
2023-04-17T16:21:44.903Z,87.50
2023-04-17T16:24:11.489Z,88.70
2023-04-17T16:26:38.034Z,88.90
2023-04-17T16:29:04.635Z,87.10
2023-04-17T16:31:31.256Z,87.50
2023-04-17T16:33:57.963Z,89.50
2023-04-17T16:36:24.571Z,87.70
2023-04-17T16:38:51.151Z,88.90
2023-04-17T16:41:17.738Z,89.50
2023-04-17T16:43:44.336Z,87.90
2023-04-17T16:46:20.601Z,87.50
2023-04-17T16:48:49.523Z,88.70
2023-04-17T16:51:16.218Z,88.30
2023-04-17T16:53:42.944Z,87.20
2023-04-17T16:56:09.548Z,88.10
2023-04-17T16:58:36.217Z,88.00
2023-04-17T17:01:02.850Z,87.80
2023-04-17T17:03:29.465Z,89.60
2023-04-17T17:05:56.044Z,90.10
2023-04-17T17:08:22.597Z,90.00
2023-04-17T17:10:49.238Z,89.90
2023-04-17T17:13:15.797Z,90.20
2023-04-17T17:15:42.397Z,90.40
2023-04-17T17:18:09.008Z,90.30
2023-04-17T17:20:35.604Z,91.00
2023-04-17T17:23:02.455Z,91.10
2023-04-17T17:25:29.445Z,91.40
2023-04-17T17:27:56.158Z,91.00
2023-04-17T17:30:23.113Z,90.80
2023-04-17T17:32:49.771Z,91.20
2023-04-17T17:35:16.369Z,91.10
2023-04-17T17:37:42.980Z,91.40
2023-04-17T17:40:09.938Z,91.90
2023-04-17T17:42:36.527Z,91.80
2023-04-17T17:45:03.084Z,91.50
2023-04-17T17:47:29.772Z,91.80
2023-04-17T17:49:56.397Z,92.10
2023-04-17T17:52:23.107Z,92.10
2023-04-17T17:54:49.695Z,91.90
2023-04-17T17:57:16.325Z,92.00
2023-04-17T17:59:42.913Z,91.50
2023-04-17T18:02:09.647Z,91.90
2023-04-17T18:04:36.384Z,92.20
2023-04-17T18:07:03.413Z,92.50
2023-04-17T18:09:30.044Z,92.50
2023-04-17T18:11:56.624Z,92.50
2023-04-17T18:14:23.213Z,92.90
2023-04-17T18:16:49.777Z,92.60
2023-04-17T18:19:16.397Z,92.50
2023-04-17T18:21:44.192Z,93.00
2023-04-17T18:24:12.441Z,93.20
2023-04-17T18:26:39.376Z,93.10
2023-04-17T18:29:06.120Z,93.50
2023-04-17T18:31:32.763Z,93.50
2023-04-17T18:33:59.356Z,93.30
2023-04-17T18:36:25.913Z,93.40
2023-04-17T18:38:52.505Z,93.60
2023-04-17T18:41:19.114Z,93.10
2023-04-17T18:43:45.706Z,93.30
2023-04-17T18:46:12.456Z,93.30
2023-04-17T18:48:39.083Z,93.60
2023-04-17T18:51:05.828Z,93.50
2023-04-17T18:53:32.433Z,93.30
2023-04-17T18:55:59.062Z,93.40
2023-04-17T18:58:25.682Z,93.90
2023-04-17T19:00:52.303Z,94.40
2023-04-17T19:03:18.919Z,94.10
2023-04-17T19:05:45.595Z,94.20
2023-04-17T19:08:12.212Z,94.30
2023-04-17T19:10:40.104Z,94.70
2023-04-17T19:13:06.880Z,95.00
2023-04-17T19:15:33.537Z,94.30
2023-04-17T19:18:00.248Z,94.70
2023-04-17T19:20:26.860Z,95.10
2023-04-17T19:22:53.450Z,95.20
2023-04-17T19:25:20.037Z,95.20
2023-04-17T19:27:46.677Z,95.30
2023-04-17T19:30:13.340Z,95.30
2023-04-17T19:32:39.927Z,95.20
2023-04-17T19:35:06.570Z,95.10
2023-04-17T19:37:33.154Z,95.30
2023-04-17T19:39:59.850Z,95.20
2023-04-17T19:42:27.035Z,95.20
2023-04-17T19:44:53.614Z,95.40
2023-04-17T19:47:20.187Z,95.70
2023-04-17T19:49:46.796Z,96.40
2023-04-17T19:52:13.385Z,96.30
2023-04-17T19:54:40.030Z,96.60
2023-04-17T19:57:06.621Z,96.20
2023-04-17T19:59:33.531Z,96.10
2023-04-17T20:02:00.145Z,96.30
2023-04-17T20:04:27.167Z,96.00
2023-04-17T20:06:54.223Z,96.60
2023-04-17T20:09:20.810Z,96.30
2023-04-17T20:11:47.378Z,96.50
2023-04-17T20:14:14.106Z,96.20
2023-04-17T20:16:40.781Z,96.50
2023-04-17T20:19:07.360Z,96.40
2023-04-17T20:21:33.986Z,96.60
2023-04-17T20:24:00.628Z,96.30
2023-04-17T20:26:27.258Z,96.80
2023-04-17T20:28:53.857Z,96.70
2023-04-17T20:31:20.455Z,96.90
2023-04-17T20:33:47.094Z,96.80
2023-04-17T20:36:13.690Z,96.20
2023-04-17T20:38:40.295Z,97.10
2023-04-17T20:41:06.857Z,97.00
2023-04-17T20:43:33.421Z,96.80
2023-04-17T20:46:00.133Z,97.20
2023-04-17T20:48:27.174Z,97.10
2023-04-17T20:50:53.785Z,97.30
2023-04-17T20:53:20.357Z,97.60
2023-04-17T20:55:47.075Z,97.20
2023-04-17T20:58:13.892Z,97.60
2023-04-17T21:00:50.699Z,97.40
2023-04-17T21:03:24.900Z,97.20
2023-04-17T21:05:51.520Z,97.60
2023-04-17T21:08:18.113Z,97.40
2023-04-17T21:10:44.671Z,97.70
2023-04-17T21:13:11.266Z,97.70
2023-04-17T21:15:37.850Z,97.40
2023-04-17T21:18:04.468Z,98.10
2023-04-17T21:20:31.093Z,97.80
2023-04-17T21:22:57.680Z,98.00
2023-04-17T21:25:24.242Z,98.50
2023-04-17T21:27:51.047Z,97.90
2023-04-17T21:30:17.615Z,97.90
2023-04-17T21:32:44.237Z,98.10
2023-04-17T21:35:10.849Z,98.00
2023-04-17T21:37:37.404Z,98.30
2023-04-17T21:40:03.983Z,98.40
2023-04-17T21:42:30.576Z,98.70
2023-04-17T21:44:57.170Z,98.50
2023-04-17T21:47:23.885Z,98.40
2023-04-17T21:49:50.723Z,98.30
2023-04-17T21:52:17.305Z,98.20
2023-04-17T21:54:43.861Z,98.70
2023-04-17T21:57:10.459Z,98.80
2023-04-17T21:59:37.032Z,98.90
2023-04-17T22:02:03.647Z,98.90
2023-04-17T22:04:30.272Z,98.50
2023-04-17T22:06:57.090Z,98.50
2023-04-17T22:09:23.667Z,98.40
2023-04-17T22:11:50.252Z,98.70
2023-04-17T22:14:16.943Z,98.60
2023-04-17T22:16:43.605Z,98.50
2023-04-17T22:19:10.236Z,98.60
2023-04-17T22:21:36.842Z,98.40
2023-04-17T22:24:03.405Z,98.50
2023-04-17T22:26:29.998Z,98.90
2023-04-17T22:28:56.556Z,98.70
2023-04-17T22:31:23.184Z,98.80
2023-04-17T22:33:49.790Z,98.60
2023-04-17T22:36:16.398Z,99.00
2023-04-17T22:38:43.012Z,99.50
2023-04-17T22:41:09.582Z,99.90
2023-04-17T22:43:36.617Z,99.30
2023-04-17T22:46:03.217Z,99.80
2023-04-17T22:48:29.901Z,99.70
2023-04-17T22:50:56.535Z,99.80
2023-04-17T22:53:23.151Z,99.60
2023-04-17T22:55:49.747Z,99.40
2023-04-17T22:58:16.391Z,99.40
2023-04-17T23:00:43.079Z,99.30
2023-04-17T23:03:09.839Z,99.50
2023-04-17T23:05:36.625Z,99.60
2023-04-17T23:08:03.235Z,99.90
2023-04-17T23:10:29.801Z,99.80
2023-04-17T23:12:56.393Z,99.90
2023-04-17T23:15:23.061Z,99.90
2023-04-17T23:17:49.651Z,99.90
2023-04-17T23:20:16.320Z,99.90
2023-04-17T23:22:42.931Z,99.90
2023-04-17T23:25:09.530Z,99.90
2023-04-17T23:27:36.192Z,99.90
2023-04-17T23:30:02.846Z,99.90
2023-04-17T23:32:29.455Z,99.90
2023-04-17T23:34:56.030Z,99.90
2023-04-17T23:37:22.600Z,99.90
2023-04-17T23:39:49.237Z,99.90
2023-04-17T23:42:15.810Z,99.90
2023-04-17T23:44:42.496Z,99.90
2023-04-17T23:47:09.120Z,99.90
2023-04-17T23:49:35.796Z,99.90
2023-04-17T23:52:02.459Z,99.90
2023-04-17T23:54:29.077Z,99.90
2023-04-17T23:56:55.669Z,99.90
2023-04-17T23:59:22.261Z,99.90
